Whitetop, Virginia
Current Conditions -  °F | °C
As of 9:35 AM on Monday 26 Jan 2015 (Local Time) from KGEV Reporting Station
Broken Clouds Broken Clouds  
Wind Chill: -2°   Ceiling: 3500
Heat Index:   Visibility: 10mi
Dew Point:   Wind: 9mph
Humidity: 84%   Direction: 280°W
Pressure: 29.61"   Gusts: NA
Location:  36.6°N, 81.63°W
Report Text: KGEV 261435Z AUTO 28008KT 10SM SCT012 BKN035 02/00 A2961 RMK AO2 T00221002
Loading
Personal Weather Stations






























Interactive Weather Map New forecast layout! Learn more

10-Day Weather Forecast

Advertisements
Track Severe Weather on mobile